createdAt,value
2023-11-03T00:03:13.606Z,10.64
2023-11-03T00:08:13.526Z,10.64
2023-11-03T00:13:13.565Z,10.61
2023-11-03T00:18:13.560Z,10.42
2023-11-03T00:23:13.467Z,10.52
2023-11-03T00:28:13.362Z,10.60
2023-11-03T00:33:13.407Z,10.47
2023-11-03T00:38:13.301Z,10.48
2023-11-03T00:43:13.237Z,10.45
2023-11-03T00:48:13.135Z,10.74
2023-11-03T00:53:13.355Z,10.60
2023-11-03T00:58:13.043Z,10.63
2023-11-03T01:03:13.133Z,10.60
2023-11-03T01:08:12.881Z,10.63
2023-11-03T01:13:15.777Z,10.85
2023-11-03T01:18:12.957Z,10.70
2023-11-03T01:23:12.710Z,10.84
2023-11-03T01:28:12.686Z,11.02
2023-11-03T01:33:12.682Z,10.79
2023-11-03T01:38:12.522Z,10.97
2023-11-03T01:43:12.465Z,10.71
2023-11-03T01:48:12.399Z,10.76
2023-11-03T01:53:12.298Z,10.88
2023-11-03T01:58:12.375Z,11.00
2023-11-03T02:03:12.161Z,10.78
2023-11-03T02:08:12.217Z,10.84
2023-11-03T02:13:12.152Z,10.88
2023-11-03T02:18:12.160Z,10.92
2023-11-03T02:23:11.980Z,11.06
2023-11-03T02:28:11.980Z,11.10
2023-11-03T02:33:11.925Z,10.97
2023-11-03T02:38:11.825Z,11.04
2023-11-03T02:43:11.778Z,10.97
2023-11-03T02:48:11.804Z,11.07
2023-11-03T02:53:11.622Z,10.89
2023-11-03T02:58:11.627Z,10.96
2023-11-03T03:03:11.568Z,11.04
2023-11-03T03:08:11.469Z,10.96
2023-11-03T03:13:11.472Z,10.84
2023-11-03T03:18:11.443Z,10.91
2023-11-03T03:23:11.386Z,10.92
2023-11-03T03:28:11.390Z,10.81
2023-11-03T03:33:11.337Z,10.97
2023-11-03T03:38:11.229Z,11.03
2023-11-03T03:43:11.230Z,11.04
2023-11-03T03:48:11.147Z,11.09
2023-11-03T03:53:11.070Z,11.17
2023-11-03T03:58:11.050Z,11.11
2023-11-03T04:03:10.972Z,11.24
2023-11-03T04:08:10.816Z,11.00
2023-11-03T04:13:10.790Z,11.17
2023-11-03T04:18:10.782Z,11.11
2023-11-03T04:23:10.634Z,11.03
2023-11-03T04:28:10.747Z,10.89
2023-11-03T04:33:10.648Z,11.09
2023-11-03T04:38:10.498Z,10.82
2023-11-03T04:43:10.518Z,10.85
2023-11-03T04:48:10.482Z,10.84
2023-11-03T04:53:10.755Z,10.81
2023-11-03T04:58:10.415Z,10.78
2023-11-03T05:03:10.319Z,10.96
2023-11-03T05:08:10.184Z,10.84
2023-11-03T05:13:10.150Z,10.88
2023-11-03T05:18:10.110Z,10.86
2023-11-03T05:23:10.003Z,10.92
2023-11-03T05:28:09.947Z,11.09
2023-11-03T05:33:09.930Z,10.81
2023-11-03T05:38:09.849Z,10.96
2023-11-03T05:43:09.870Z,10.78
2023-11-03T05:48:09.841Z,10.74
2023-11-03T05:53:09.744Z,10.82
2023-11-03T05:58:09.904Z,10.92
2023-11-03T06:03:09.714Z,10.71
2023-11-03T06:08:09.569Z,10.86
2023-11-03T06:13:09.560Z,10.68
2023-11-03T06:18:09.603Z,10.82
2023-11-03T06:23:09.363Z,10.84
2023-11-03T06:28:09.418Z,10.61
2023-11-03T06:33:09.321Z,10.59
2023-11-03T06:38:09.226Z,10.89
2023-11-03T06:43:11.240Z,10.73
2023-11-03T06:48:09.944Z,10.73
2023-11-03T06:53:09.318Z,10.99
2023-11-03T06:58:09.413Z,10.78
2023-11-03T07:03:09.113Z,10.89
2023-11-03T07:08:08.991Z,10.94
2023-11-03T07:13:10.419Z,10.86
2023-11-03T07:18:09.191Z,10.86
2023-11-03T07:23:18.346Z,10.91
2023-11-03T07:28:08.593Z,10.78
2023-11-03T07:33:08.677Z,10.88
2023-11-03T07:38:08.524Z,10.97
2023-11-03T07:43:08.922Z,11.17
2023-11-03T07:48:08.815Z,11.06
2023-11-03T07:53:08.653Z,11.19
2023-11-03T07:58:08.812Z,11.25
2023-11-03T08:03:08.330Z,11.24
2023-11-03T08:08:08.290Z,11.03
2023-11-03T08:13:08.349Z,11.11
2023-11-03T08:18:08.596Z,11.24
2023-11-03T08:23:08.137Z,10.99
2023-11-03T08:28:08.033Z,11.06
2023-11-03T08:33:07.906Z,11.25
2023-11-03T08:38:07.968Z,11.36
2023-11-03T08:43:08.108Z,11.15
2023-11-03T08:48:08.055Z,11.32
2023-11-03T08:53:07.762Z,11.39
2023-11-03T08:58:16.098Z,11.44
2023-11-03T09:03:08.620Z,11.57
2023-11-03T09:08:07.537Z,11.60
2023-11-03T09:13:07.798Z,11.54
2023-11-03T09:18:07.681Z,11.46
2023-11-03T09:23:07.378Z,11.61
2023-11-03T09:28:08.336Z,11.76
2023-11-03T09:33:07.675Z,11.61
2023-11-03T09:38:08.708Z,11.69
2023-11-03T09:43:08.321Z,11.54
2023-11-03T09:48:07.285Z,11.54
2023-11-03T09:53:07.070Z,11.52
2023-11-03T09:58:06.977Z,11.35
2023-11-03T10:03:14.474Z,11.72
2023-11-03T10:08:08.831Z,11.90
2023-11-03T10:13:07.124Z,11.94
2023-11-03T10:18:07.171Z,12.05
2023-11-03T10:23:09.940Z,12.14
2023-11-03T10:28:06.678Z,12.05
2023-11-03T10:33:06.693Z,12.45
2023-11-03T10:38:06.550Z,12.71
2023-11-03T10:43:06.928Z,13.05
2023-11-03T10:48:06.530Z,13.23
2023-11-03T10:53:06.741Z,13.14
2023-11-03T10:58:06.984Z,13.19
2023-11-03T11:03:30.567Z,13.30
2023-11-03T11:50:49.539Z,13.62
2023-11-03T11:55:49.522Z,13.77
2023-11-03T12:00:49.752Z,13.44
2023-11-03T12:05:49.537Z,13.69
2023-11-03T12:10:49.276Z,13.62
2023-11-03T12:15:49.282Z,13.69
2023-11-03T12:20:49.187Z,13.64
2023-11-03T12:25:49.129Z,13.57
2023-11-03T12:30:49.175Z,13.51
2023-11-03T12:35:49.057Z,13.57
2023-11-03T12:40:49.348Z,13.33
2023-11-03T12:45:49.036Z,13.48
2023-11-03T12:50:49.006Z,13.46
2023-11-03T12:55:48.818Z,13.46
2023-11-03T13:00:49.150Z,13.38
2023-11-03T13:05:48.856Z,13.19
2023-11-03T13:10:48.661Z,13.30
2023-11-03T13:15:49.056Z,13.26
2023-11-03T13:20:50.102Z,13.15
2023-11-03T13:25:48.791Z,13.11
2023-11-03T13:30:48.544Z,12.97
2023-11-03T13:35:48.495Z,12.97
2023-11-03T13:40:48.423Z,12.85
2023-11-03T13:45:48.367Z,13.12
2023-11-03T13:50:48.607Z,13.20
2023-11-03T13:55:48.282Z,13.26
2023-11-03T14:00:48.253Z,13.00
2023-11-03T14:05:48.113Z,13.10
2023-11-03T14:10:48.126Z,12.93
2023-11-03T14:15:48.124Z,13.01
2023-11-03T14:39:15.696Z,12.86
2023-11-03T14:44:15.650Z,13.01
2023-11-03T14:49:15.663Z,13.00
2023-11-03T14:54:15.626Z,13.04
2023-11-03T14:59:15.383Z,12.93
2023-11-03T15:04:15.392Z,13.00
2023-11-03T15:09:15.226Z,12.89
2023-11-03T15:14:15.159Z,12.70
2023-11-03T15:19:15.115Z,12.75
2023-11-03T15:24:15.618Z,12.46
2023-11-03T15:29:15.016Z,12.42
2023-11-03T15:34:15.205Z,12.21
2023-11-03T15:39:14.829Z,12.04
2023-11-03T15:44:14.927Z,11.91
2023-11-03T15:49:14.819Z,11.88
2023-11-03T15:54:14.791Z,11.73
2023-11-03T15:59:14.817Z,11.54
2023-11-03T16:04:14.656Z,11.57
2023-11-03T16:09:14.523Z,11.27
2023-11-03T16:14:14.473Z,11.06
2023-11-03T16:19:14.803Z,11.02
2023-11-03T16:24:14.435Z,10.94
2023-11-03T16:29:14.351Z,10.88
2023-11-03T16:34:14.376Z,10.67
2023-11-03T16:39:14.184Z,10.61
2023-11-03T16:44:14.215Z,10.79
2023-11-03T16:49:14.372Z,10.53
2023-11-03T16:54:14.108Z,10.44
2023-11-03T16:59:14.513Z,10.14
2023-11-03T17:04:13.967Z,10.20
2023-11-03T17:09:14.082Z,10.20
2023-11-03T17:14:14.055Z,10.23
2023-11-03T17:19:13.779Z,10.34
2023-11-03T17:24:13.720Z,10.22
2023-11-03T17:29:16.025Z,10.14
2023-11-03T17:34:13.568Z,10.02
2023-11-03T17:39:13.541Z,9.94
2023-11-03T17:44:13.456Z,9.81
2023-11-03T17:49:13.490Z,9.78
2023-11-03T17:54:13.352Z,10.07
2023-11-03T17:59:13.325Z,9.89
2023-11-03T18:04:13.362Z,9.72
2023-11-03T18:09:14.294Z,9.64
2023-11-03T18:14:13.221Z,9.74
2023-11-03T18:19:13.144Z,9.66
2023-11-03T18:24:13.129Z,9.87
2023-11-03T18:29:13.074Z,9.97
2023-11-03T18:34:13.019Z,9.93
2023-11-03T18:39:12.971Z,9.83
2023-11-03T18:44:13.002Z,9.66
2023-11-03T19:00:22.436Z,9.89
2023-11-03T19:04:59.870Z,9.76
2023-11-03T19:09:13.575Z,9.66
2023-11-03T19:14:12.468Z,9.74
2023-11-03T19:19:12.487Z,9.68
2023-11-03T19:24:12.409Z,9.64
2023-11-03T19:29:12.535Z,9.64
2023-11-03T19:34:12.301Z,9.57
2023-11-03T19:39:12.265Z,9.51
2023-11-03T19:44:12.264Z,9.50
2023-11-03T19:49:12.332Z,9.58
2023-11-03T19:54:12.142Z,9.72
2023-11-03T19:59:12.076Z,9.69
2023-11-03T20:04:12.045Z,9.87
2023-11-03T20:09:11.972Z,9.69
2023-11-03T20:14:11.891Z,9.78
2023-11-03T20:19:11.946Z,9.64
2023-11-03T20:24:11.823Z,9.72
2023-11-03T20:29:11.787Z,9.97
2023-11-03T20:34:11.852Z,9.87
2023-11-03T20:39:11.774Z,10.01
2023-11-03T20:44:11.743Z,10.02
2023-11-03T20:49:11.637Z,9.87
2023-11-03T20:54:11.557Z,9.89
2023-11-03T20:59:11.476Z,9.81
2023-11-03T21:04:11.601Z,9.90
2023-11-03T21:09:11.426Z,9.87
2023-11-03T21:14:11.275Z,9.84
2023-11-03T21:19:11.328Z,9.72
2023-11-03T21:24:11.212Z,10.01
2023-11-03T21:29:11.217Z,9.99
2023-11-03T21:34:11.177Z,10.01
2023-11-03T21:39:11.088Z,10.15
2023-11-03T21:44:10.976Z,10.05
2023-11-03T21:49:11.033Z,9.86
2023-11-03T21:54:10.877Z,9.99
2023-11-03T21:59:10.776Z,10.02
2023-11-03T22:04:10.869Z,9.94
2023-11-03T22:09:10.771Z,9.93
2023-11-03T22:14:10.613Z,9.81
2023-11-03T22:19:10.723Z,9.79
2023-11-03T22:24:10.550Z,9.71
2023-11-03T22:29:10.408Z,9.76
2023-11-03T22:34:10.538Z,9.75
2023-11-03T22:39:10.316Z,9.81
2023-11-03T22:44:10.311Z,9.89
2023-11-03T22:49:10.363Z,9.91
2023-11-03T22:54:10.276Z,9.94
2023-11-03T22:59:10.099Z,9.86
2023-11-03T23:04:10.106Z,9.89
2023-11-03T23:09:10.095Z,9.79
2023-11-03T23:14:09.976Z,9.74
2023-11-03T23:19:09.890Z,9.50
2023-11-03T23:24:09.805Z,9.56
2023-11-03T23:29:09.705Z,9.53
2023-11-03T23:34:09.828Z,9.53
2023-11-03T23:39:09.661Z,9.43
2023-11-03T23:44:09.622Z,9.33
2023-11-03T23:49:09.516Z,9.28
2023-11-03T23:54:09.529Z,9.50
2023-11-03T23:59:09.445Z,9.36
